Wetterdaten: Woche 03.06.13 - 09.06.13 (KW23)
Datum Zeit Temperatur Luftfeuchte Luftdruck Niederschlag Windrichtung Sonnenschein Solar Wind
03.06.2013 00:00 8,6 C 90 % 1021,2 hPa 0,0 l/m N 0,00 h 0 W/m 0,5 km/h (0 Bft)
03.06.2013 01:00 8,3 C 91 % 1021,1 hPa 0,0 l/m N 0,00 h 0 W/m 0,5 km/h (0 Bft)
03.06.2013 02:00 8,2 C 90 % 1021,1 hPa 0,0 l/m N 0,00 h 0 W/m 1,6 km/h (1 Bft)
03.06.2013 03:00 8,3 C 87 % 1021,1 hPa 0,0 l/m O-NO 0,00 h 0 W/m 5,6 km/h (1 Bft)
03.06.2013 04:00 7,8 C 90 % 1021,3 hPa 0,0 l/m O-NO 0,00 h 0 W/m 10,6 km/h (2 Bft)
03.06.2013 05:00 7,3 C 89 % 1021,3 hPa 0,0 l/m O 0,00 h 7 W/m 6,6 km/h (2 Bft)
03.06.2013 06:00 6,9 C 88 % 1021,3 hPa 0,0 l/m O 0,00 h 31 W/m 6,3 km/h (2 Bft)
03.06.2013 07:00 7,5 C 86 % 1021,4 hPa 0,0 l/m O-NO 0,00 h 71 W/m 6,3 km/h (2 Bft)
03.06.2013 08:00 8,8 C 81 % 1021,5 hPa 0,0 l/m NO 0,33 h 245 W/m 14,1 km/h (3 Bft)
03.06.2013 09:00 9,1 C 79 % 1021,6 hPa 0,0 l/m NO 0,00 h 176 W/m 12,8 km/h (3 Bft)
03.06.2013 10:00 9,6 C 78 % 1021,7 hPa 0,0 l/m NO 0,08 h 254 W/m 12,5 km/h (3 Bft)
03.06.2013 11:00 9,5 C 80 % 1021,8 hPa 0,0 l/m O-NO 0,00 h 129 W/m 12,1 km/h (2 Bft)
03.06.2013 12:00 9,3 C 83 % 1021,9 hPa 0,0 l/m NO 0,00 h 142 W/m 12,0 km/h (2 Bft)
03.06.2013 13:00 9,1 C 83 % 1022,3 hPa 0,0 l/m NO 0,00 h 114 W/m 14,4 km/h (3 Bft)
03.06.2013 14:00 8,2 C 85 % 1022,7 hPa 0,2 l/m O-NO 0,00 h 114 W/m 19,8 km/h (4 Bft)
03.06.2013 15:00 7,6 C 89 % 1023,0 hPa 0,0 l/m O-NO 0,00 h 96 W/m 17,3 km/h (3 Bft)
03.06.2013 16:00 6,8 C 90 % 1023,2 hPa 0,2 l/m NO 0,00 h 175 W/m 19,8 km/h (4 Bft)
03.06.2013 17:00 6,6 C 89 % 1022,9 hPa 0,2 l/m O-NO 0,00 h 114 W/m 16,4 km/h (3 Bft)
03.06.2013 18:00 6,5 C 89 % 1022,5 hPa 0,2 l/m NO 0,00 h 101 W/m 6,0 km/h (2 Bft)
03.06.2013 19:00 6,8 C 87 % 1022,5 hPa 0,0 l/m NO 0,00 h 59 W/m 3,5 km/h (1 Bft)
03.06.2013 20:00 6,8 C 86 % 1022,7 hPa 0,0 l/m N 0,00 h 18 W/m 2,1 km/h (1 Bft)
03.06.2013 21:00 6,7 C 89 % 1022,8 hPa 0,0 l/m N 0,00 h 0 W/m 1,3 km/h (1 Bft)
03.06.2013 22:00 6,3 C 93 % 1022,9 hPa 0,0 l/m N 0,00 h 0 W/m 0,1 km/h (0 Bft)
03.06.2013 23:00 6,2 C 94 % 1022,7 hPa 0,0 l/m N 0,00 h 0 W/m 0,7 km/h (0 Bft)
04.06.2013 00:00 6,2 C 95 % 1022,2 hPa 0,0 l/m N 0,00 h 0 W/m 0,0 km/h (0 Bft)
04.06.2013 01:00 6,2 C 95 % 1021,7 hPa 0,0 l/m N 0,00 h 0 W/m 1,2 km/h (1 Bft)
04.06.2013 02:00 6,3 C 94 % 1021,1 hPa 0,0 l/m N 0,00 h 0 W/m 1,2 km/h (1 Bft)
04.06.2013 03:00 6,3 C 94 % 1020,7 hPa 0,0 l/m NO 0,00 h 0 W/m 3,5 km/h (1 Bft)
04.06.2013 04:00 6,4 C 94 % 1020,2 hPa 0,0 l/m N-NO 0,00 h 0 W/m 6,5 km/h (2 Bft)
04.06.2013 05:00 6,5 C 93 % 1020,0 hPa 0,0 l/m N-NO 0,00 h 7 W/m 4,4 km/h (1 Bft)
04.06.2013 06:00 6,7 C 92 % 1020,0 hPa 0,0 l/m N-NO 0,00 h 22 W/m 4,3 km/h (1 Bft)
04.06.2013 07:00 7,7 C 89 % 1019,7 hPa 0,0 l/m NO 0,08 h 103 W/m 5,5 km/h (1 Bft)
04.06.2013 08:00 9,3 C 83 % 1019,4 hPa 0,0 l/m O-NO 0,67 h 335 W/m 12,5 km/h (3 Bft)
04.06.2013 09:00 10,9 C 78 % 1019,3 hPa 0,0 l/m O-NO 0,75 h 440 W/m 16,1 km/h (3 Bft)
04.06.2013 10:00 12,0 C 77 % 1019,0 hPa 0,0 l/m O-NO 0,58 h 498 W/m 16,9 km/h (3 Bft)
04.06.2013 11:00 14,1 C 73 % 1018,7 hPa 0,0 l/m O 0,83 h 783 W/m 19,6 km/h (3 Bft)
04.06.2013 12:00 15,2 C 68 % 1018,3 hPa 0,0 l/m O-NO 0,67 h 749 W/m 20,4 km/h (4 Bft)
04.06.2013 13:00 16,8 C 61 % 1017,6 hPa 0,0 l/m O-NO 0,92 h 834 W/m 18,9 km/h (3 Bft)
04.06.2013 14:00 17,8 C 55 % 1017,1 hPa 0,0 l/m O-NO 1,00 h 882 W/m 19,8 km/h (4 Bft)
04.06.2013 15:00 18,6 C 51 % 1016,7 hPa 0,0 l/m NO 1,00 h 824 W/m 18,9 km/h (3 Bft)
04.06.2013 16:00 18,9 C 49 % 1016,6 hPa 0,0 l/m NO 1,00 h 704 W/m 18,1 km/h (3 Bft)
04.06.2013 17:00 18,6 C 50 % 1016,1 hPa 0,0 l/m NO 1,00 h 557 W/m 20,0 km/h (4 Bft)
04.06.2013 18:00 17,9 C 52 % 1015,9 hPa 0,0 l/m NO 0,92 h 343 W/m 19,2 km/h (3 Bft)
04.06.2013 19:00 16,9 C 60 % 1016,1 hPa 0,0 l/m O-NO 1,00 h 201 W/m 17,2 km/h (3 Bft)
04.06.2013 20:00 15,4 C 66 % 1016,1 hPa 0,0 l/m O 0,17 h 39 W/m 11,8 km/h (2 Bft)
04.06.2013 21:00 13,6 C 74 % 1016,3 hPa 0,0 l/m O-NO 0,00 h 7 W/m 3,9 km/h (1 Bft)
04.06.2013 22:00 11,5 C 85 % 1016,7 hPa 0,0 l/m N 0,00 h 0 W/m 1,3 km/h (1 Bft)
04.06.2013 23:00 10,3 C 89 % 1016,6 hPa 0,0 l/m N 0,00 h 0 W/m 1,2 km/h (1 Bft)
05.06.2013 00:00 9,6 C 92 % 1016,4 hPa 0,0 l/m N 0,00 h 0 W/m 1,1 km/h (0 Bft)
05.06.2013 01:00 9,0 C 93 % 1016,0 hPa 0,0 l/m N 0,00 h 0 W/m 2,0 km/h (1 Bft)
05.06.2013 02:00 8,8 C 93 % 1015,6 hPa 0,0 l/m N-NO 0,00 h 0 W/m 5,1 km/h (1 Bft)
05.06.2013 03:00 8,6 C 93 % 1015,5 hPa 0,0 l/m N-NO 0,00 h 0 W/m 4,3 km/h (1 Bft)
05.06.2013 04:00 8,1 C 95 % 1015,2 hPa 0,0 l/m N-NO 0,00 h 0 W/m 5,6 km/h (1 Bft)
05.06.2013 05:00 7,9 C 95 % 1015,0 hPa 0,0 l/m N-NO 0,00 h 9 W/m 7,6 km/h (2 Bft)
05.06.2013 06:00 8,5 C 95 % 1015,3 hPa 0,0 l/m N 0,00 h 68 W/m 5,9 km/h (2 Bft)
05.06.2013 07:00 10,6 C 89 % 1015,5 hPa 0,0 l/m N-NO 1,00 h 217 W/m 7,0 km/h (2 Bft)
05.06.2013 08:00 12,6 C 82 % 1015,6 hPa 0,0 l/m NO 1,00 h 386 W/m 10,9 km/h (2 Bft)
05.06.2013 09:00 14,8 C 75 % 1015,5 hPa 0,0 l/m NO 1,00 h 551 W/m 15,7 km/h (3 Bft)
05.06.2013 10:00 16,6 C 70 % 1015,2 hPa 0,0 l/m NO 1,00 h 698 W/m 16,2 km/h (3 Bft)
05.06.2013 11:00 18,1 C 65 % 1015,1 hPa 0,0 l/m O-NO 1,00 h 822 W/m 21,0 km/h (4 Bft)
05.06.2013 12:00 19,1 C 62 % 1014,8 hPa 0,0 l/m O-SO 0,83 h 730 W/m 20,8 km/h (4 Bft)
05.06.2013 13:00 20,2 C 59 % 1014,6 hPa 0,0 l/m O-SO 1,00 h 893 W/m 21,0 km/h (4 Bft)
05.06.2013 14:00 20,8 C 55 % 1014,4 hPa 0,0 l/m O 0,75 h 764 W/m 20,2 km/h (4 Bft)
05.06.2013 15:00 21,0 C 53 % 1014,1 hPa 0,0 l/m O-SO 0,67 h 620 W/m 18,9 km/h (3 Bft)
05.06.2013 16:00 21,4 C 50 % 1013,9 hPa 0,0 l/m O 0,67 h 526 W/m 16,2 km/h (3 Bft)
05.06.2013 17:00 21,0 C 51 % 1013,6 hPa 0,0 l/m NO 0,67 h 417 W/m 18,8 km/h (3 Bft)
05.06.2013 18:00 20,4 C 53 % 1013,7 hPa 0,0 l/m O-NO 0,83 h 257 W/m 16,6 km/h (3 Bft)
05.06.2013 19:00 19,8 C 56 % 1014,0 hPa 0,0 l/m O-NO 0,67 h 162 W/m 13,2 km/h (3 Bft)
05.06.2013 20:00 18,4 C 60 % 1014,3 hPa 0,0 l/m O 0,17 h 38 W/m 8,9 km/h (2 Bft)
05.06.2013 21:00 15,6 C 74 % 1014,9 hPa 0,0 l/m N 0,00 h 7 W/m 0,9 km/h (0 Bft)
05.06.2013 22:00 13,3 C 84 % 1015,6 hPa 0,0 l/m N 0,00 h 0 W/m 1,7 km/h (1 Bft)
05.06.2013 23:00 12,4 C 86 % 1015,7 hPa 0,0 l/m N 0,00 h 0 W/m 1,2 km/h (1 Bft)
06.06.2013 00:00 11,4 C 89 % 1015,8 hPa 0,0 l/m N 0,00 h 0 W/m 1,1 km/h (0 Bft)
06.06.2013 01:00 11,2 C 88 % 1015,8 hPa 0,0 l/m N-NO 0,00 h 0 W/m 3,7 km/h (1 Bft)
06.06.2013 02:00 10,8 C 88 % 1015,7 hPa 0,0 l/m N-NO 0,00 h 0 W/m 4,9 km/h (1 Bft)
06.06.2013 03:00 10,3 C 89 % 1015,6 hPa 0,0 l/m N 0,00 h 0 W/m 4,1 km/h (1 Bft)
06.06.2013 04:00 9,7 C 92 % 1015,7 hPa 0,0 l/m N 0,00 h 0 W/m 3,3 km/h (1 Bft)
06.06.2013 05:00 9,5 C 92 % 1016,0 hPa 0,0 l/m N 0,00 h 10 W/m 5,3 km/h (1 Bft)
06.06.2013 06:00 10,2 C 90 % 1016,5 hPa 0,0 l/m N 0,08 h 70 W/m 6,0 km/h (2 Bft)
06.06.2013 07:00 11,8 C 85 % 1016,7 hPa 0,0 l/m N 1,00 h 223 W/m 6,8 km/h (2 Bft)
06.06.2013 08:00 14,3 C 79 % 1016,8 hPa 0,0 l/m N 1,00 h 394 W/m 7,9 km/h (2 Bft)
06.06.2013 09:00 16,8 C 67 % 1016,9 hPa 0,0 l/m N-NO 1,00 h 560 W/m 9,9 km/h (2 Bft)
06.06.2013 10:00 18,6 C 58 % 1016,8 hPa 0,0 l/m O-NO 1,00 h 708 W/m 13,6 km/h (3 Bft)
06.06.2013 11:00 19,7 C 51 % 1016,8 hPa 0,0 l/m O-NO 0,75 h 665 W/m 15,0 km/h (3 Bft)
06.06.2013 12:00 20,4 C 48 % 1016,6 hPa 0,0 l/m N-NO 0,67 h 692 W/m 15,0 km/h (3 Bft)
06.06.2013 13:00 21,3 C 45 % 1016,5 hPa 0,0 l/m O-NO 0,92 h 883 W/m 14,6 km/h (3 Bft)
06.06.2013 14:00 21,7 C 45 % 1016,4 hPa 0,0 l/m O-NO 0,92 h 907 W/m 14,9 km/h (3 Bft)
06.06.2013 15:00 22,8 C 42 % 1016,0 hPa 0,0 l/m O-NO 1,00 h 843 W/m 13,7 km/h (3 Bft)
06.06.2013 16:00 23,1 C 41 % 1015,8 hPa 0,0 l/m NO 1,00 h 722 W/m 12,6 km/h (3 Bft)
06.06.2013 17:00 22,8 C 43 % 1015,2 hPa 0,0 l/m NO 0,83 h 468 W/m 14,4 km/h (3 Bft)
06.06.2013 18:00 22,5 C 44 % 1015,0 hPa 0,0 l/m NO 0,83 h 337 W/m 15,2 km/h (3 Bft)
06.06.2013 19:00 21,7 C 45 % 1015,2 hPa 0,0 l/m O 1,00 h 218 W/m 12,6 km/h (3 Bft)
06.06.2013 20:00 20,2 C 51 % 1015,4 hPa 0,0 l/m O-NO 0,25 h 41 W/m 9,0 km/h (2 Bft)
06.06.2013 21:00 16,8 C 69 % 1015,7 hPa 0,0 l/m N 0,00 h 7 W/m 1,9 km/h (1 Bft)
06.06.2013 22:00 15,1 C 76 % 1016,1 hPa 0,0 l/m N 0,00 h 0 W/m 0,9 km/h (0 Bft)
06.06.2013 23:00 13,8 C 82 % 1016,3 hPa 0,0 l/m N 0,00 h 0 W/m 1,3 km/h (1 Bft)
07.06.2013 00:00 13,2 C 84 % 1016,2 hPa 0,0 l/m N 0,00 h 0 W/m 1,7 km/h (1 Bft)
07.06.2013 01:00 12,5 C 87 % 1016,3 hPa 0,0 l/m N 0,00 h 0 W/m 1,6 km/h (1 Bft)
07.06.2013 02:00 12,5 C 88 % 1016,2 hPa 0,0 l/m N 0,00 h 0 W/m 6,1 km/h (2 Bft)
07.06.2013 03:00 11,9 C 90 % 1016,3 hPa 0,0 l/m N 0,00 h 0 W/m 6,4 km/h (2 Bft)
07.06.2013 04:00 11,5 C 92 % 1016,4 hPa 0,0 l/m N 0,00 h 0 W/m 4,0 km/h (1 Bft)
07.06.2013 05:00 11,4 C 94 % 1016,7 hPa 0,0 l/m N 0,00 h 10 W/m 4,3 km/h (1 Bft)
07.06.2013 06:00 11,7 C 95 % 1016,7 hPa 0,0 l/m N 0,00 h 63 W/m 3,3 km/h (1 Bft)
07.06.2013 07:00 12,9 C 93 % 1016,7 hPa 0,0 l/m N 0,42 h 148 W/m 5,1 km/h (1 Bft)
07.06.2013 08:00 15,3 C 87 % 1016,5 hPa 0,0 l/m N 1,00 h 375 W/m 7,5 km/h (2 Bft)
07.06.2013 09:00 17,7 C 78 % 1016,4 hPa 0,0 l/m NO 1,00 h 530 W/m 8,7 km/h (2 Bft)
07.06.2013 10:00 19,5 C 70 % 1016,4 hPa 0,0 l/m O-NO 0,92 h 633 W/m 11,4 km/h (2 Bft)
07.06.2013 11:00 19,8 C 64 % 1016,3 hPa 0,0 l/m O 0,25 h 304 W/m 11,3 km/h (2 Bft)
07.06.2013 12:00 21,5 C 56 % 1016,4 hPa 0,0 l/m O-NO 0,83 h 734 W/m 13,2 km/h (3 Bft)
07.06.2013 13:00 22,1 C 52 % 1016,2 hPa 0,0 l/m O-NO 0,92 h 623 W/m 13,4 km/h (3 Bft)
07.06.2013 14:00 22,8 C 51 % 1015,8 hPa 0,0 l/m NO 0,83 h 761 W/m 13,8 km/h (3 Bft)
07.06.2013 15:00 22,8 C 50 % 1015,3 hPa 0,0 l/m O-NO 0,58 h 656 W/m 14,1 km/h (3 Bft)
07.06.2013 16:00 22,5 C 51 % 1015,0 hPa 0,0 l/m O-NO 0,17 h 238 W/m 14,1 km/h (3 Bft)
07.06.2013 17:00 22,1 C 53 % 1014,8 hPa 0,0 l/m O-NO 0,50 h 320 W/m 15,8 km/h (3 Bft)
07.06.2013 18:00 22,1 C 52 % 1014,6 hPa 0,0 l/m O-NO 0,67 h 264 W/m 14,1 km/h (3 Bft)
07.06.2013 19:00 21,0 C 57 % 1014,8 hPa 0,0 l/m NO 0,33 h 135 W/m 12,4 km/h (3 Bft)
07.06.2013 20:00 19,8 C 61 % 1014,9 hPa 0,0 l/m NO 0,25 h 46 W/m 9,9 km/h (2 Bft)
07.06.2013 21:00 17,2 C 73 % 1015,0 hPa 0,0 l/m N 0,08 h 8 W/m 1,5 km/h (1 Bft)
07.06.2013 22:00 15,3 C 80 % 1015,5 hPa 0,0 l/m N 0,00 h 0 W/m 0,7 km/h (0 Bft)
07.06.2013 23:00 14,2 C 85 % 1015,6 hPa 0,0 l/m N 0,00 h 0 W/m 1,2 km/h (1 Bft)
08.06.2013 00:00 13,8 C 85 % 1015,4 hPa 0,0 l/m N-NO 0,00 h 0 W/m 2,1 km/h (1 Bft)
08.06.2013 01:00 13,7 C 84 % 1015,2 hPa 0,0 l/m N 0,00 h 0 W/m 4,4 km/h (1 Bft)
08.06.2013 02:00 12,8 C 88 % 1014,8 hPa 0,0 l/m N 0,00 h 0 W/m 1,5 km/h (1 Bft)
08.06.2013 03:00 12,3 C 90 % 1014,5 hPa 0,0 l/m N-NW 0,00 h 0 W/m 4,3 km/h (1 Bft)
08.06.2013 04:00 11,7 C 91 % 1014,2 hPa 0,0 l/m N 0,00 h 0 W/m 1,5 km/h (1 Bft)
08.06.2013 05:00 11,2 C 94 % 1014,1 hPa 0,0 l/m N 0,00 h 8 W/m 2,1 km/h (1 Bft)
08.06.2013 06:00 11,7 C 93 % 1014,0 hPa 0,0 l/m N 0,00 h 60 W/m 3,2 km/h (1 Bft)
08.06.2013 07:00 13,6 C 89 % 1014,0 hPa 0,0 l/m N-NW 0,83 h 203 W/m 4,5 km/h (1 Bft)
08.06.2013 08:00 16,0 C 83 % 1014,0 hPa 0,0 l/m N 1,00 h 366 W/m 4,3 km/h (1 Bft)
08.06.2013 09:00 18,1 C 74 % 1013,7 hPa 0,0 l/m N-NO 1,00 h 532 W/m 3,7 km/h (1 Bft)
08.06.2013 10:00 20,4 C 66 % 1013,1 hPa 0,0 l/m O-NO 0,92 h 649 W/m 8,1 km/h (2 Bft)
08.06.2013 11:00 22,3 C 59 % 1012,5 hPa 0,0 l/m O-SO 1,00 h 800 W/m 12,9 km/h (3 Bft)
08.06.2013 12:00 23,4 C 53 % 1011,7 hPa 0,0 l/m O-SO 0,75 h 734 W/m 11,7 km/h (2 Bft)
08.06.2013 13:00 23,9 C 50 % 1011,2 hPa 0,0 l/m O-NO 0,75 h 772 W/m 13,2 km/h (3 Bft)
08.06.2013 14:00 24,7 C 47 % 1010,5 hPa 0,0 l/m O-SO 0,67 h 667 W/m 13,6 km/h (3 Bft)
08.06.2013 15:00 25,1 C 44 % 1009,9 hPa 0,0 l/m O-SO 0,67 h 603 W/m 12,1 km/h (2 Bft)
08.06.2013 16:00 25,8 C 42 % 1009,2 hPa 0,0 l/m O-NO 0,92 h 661 W/m 12,5 km/h (3 Bft)
08.06.2013 17:00 25,7 C 42 % 1008,7 hPa 0,0 l/m NO 1,00 h 569 W/m 9,9 km/h (2 Bft)
08.06.2013 18:00 25,4 C 43 % 1007,9 hPa 0,0 l/m O-NO 1,00 h 414 W/m 14,0 km/h (3 Bft)
08.06.2013 19:00 24,2 C 48 % 1007,4 hPa 0,0 l/m O-NO 1,00 h 219 W/m 13,7 km/h (3 Bft)
08.06.2013 20:00 22,3 C 55 % 1007,4 hPa 0,0 l/m O-NO 0,25 h 48 W/m 8,3 km/h (2 Bft)
08.06.2013 21:00 19,3 C 69 % 1007,5 hPa 0,0 l/m N 0,00 h 7 W/m 2,0 km/h (1 Bft)
08.06.2013 22:00 17,6 C 75 % 1007,6 hPa 0,0 l/m N 0,00 h 0 W/m 1,9 km/h (1 Bft)
08.06.2013 23:00 16,9 C 79 % 1007,7 hPa 0,0 l/m N 0,00 h 0 W/m 1,2 km/h (1 Bft)
09.06.2013 00:00 16,3 C 85 % 1007,1 hPa 0,2 l/m NW 0,00 h 0 W/m 3,6 km/h (1 Bft)
09.06.2013 01:00 15,9 C 87 % 1006,5 hPa 0,0 l/m N 0,00 h 0 W/m 2,1 km/h (1 Bft)
09.06.2013 02:00 15,2 C 87 % 1006,2 hPa 0,0 l/m N 0,00 h 0 W/m 2,1 km/h (1 Bft)
09.06.2013 03:00 14,8 C 89 % 1005,9 hPa 0,0 l/m N 0,00 h 0 W/m 0,8 km/h (0 Bft)
09.06.2013 04:00 14,3 C 91 % 1005,6 hPa 0,0 l/m N 0,00 h 0 W/m 0,3 km/h (0 Bft)
09.06.2013 05:00 13,7 C 93 % 1006,0 hPa 0,0 l/m NW 0,00 h 7 W/m 2,1 km/h (1 Bft)
09.06.2013 06:00 14,0 C 95 % 1006,4 hPa 0,0 l/m NW 0,17 h 59 W/m 5,1 km/h (1 Bft)
09.06.2013 07:00 15,1 C 91 % 1006,7 hPa 0,0 l/m SW 0,17 h 105 W/m 11,4 km/h (2 Bft)
09.06.2013 08:00 16,0 C 89 % 1007,0 hPa 0,0 l/m SW 0,17 h 169 W/m 12,4 km/h (3 Bft)
09.06.2013 09:00 16,3 C 87 % 1007,3 hPa 0,0 l/m SW 0,00 h 165 W/m 12,2 km/h (2 Bft)
09.06.2013 10:00 16,9 C 83 % 1007,4 hPa 0,0 l/m N-NW 0,08 h 203 W/m 11,0 km/h (2 Bft)
09.06.2013 11:00 18,5 C 75 % 1007,1 hPa 0,0 l/m N-NW 0,67 h 623 W/m 9,3 km/h (2 Bft)
09.06.2013 12:00 20,4 C 65 % 1006,8 hPa 0,0 l/m W 0,75 h 730 W/m 12,6 km/h (3 Bft)
09.06.2013 13:00 20,7 C 61 % 1006,4 hPa 0,0 l/m W-NW 0,42 h 460 W/m 8,3 km/h (2 Bft)
09.06.2013 14:00 21,1 C 64 % 1006,0 hPa 0,0 l/m SW 0,58 h 479 W/m 15,0 km/h (3 Bft)
09.06.2013 15:00 21,3 C 64 % 1005,3 hPa 0,0 l/m S-SW 0,50 h 512 W/m 10,5 km/h (2 Bft)
09.06.2013 16:00 21,7 C 62 % 1004,4 hPa 0,0 l/m SO 0,42 h 412 W/m 8,7 km/h (2 Bft)
09.06.2013 17:00 21,3 C 61 % 1004,0 hPa 0,0 l/m S 0,00 h 201 W/m 6,8 km/h (2 Bft)
09.06.2013 18:00 21,1 C 58 % 1003,7 hPa 0,0 l/m S 0,17 h 196 W/m 6,4 km/h (2 Bft)
09.06.2013 19:00 19,6 C 62 % 1003,8 hPa 0,0 l/m N-NO 0,08 h 91 W/m 12,1 km/h (2 Bft)
09.06.2013 20:00 16,7 C 70 % 1004,7 hPa 0,0 l/m N-NO 0,00 h 16 W/m 15,4 km/h (3 Bft)
09.06.2013 21:00 15,4 C 77 % 1005,4 hPa 0,0 l/m N 0,00 h 0 W/m 17,4 km/h (3 Bft)
09.06.2013 22:00 14,3 C 83 % 1005,0 hPa 0,0 l/m N-NO 0,00 h 0 W/m 13,3 km/h (3 Bft)
09.06.2013 23:00 13,3 C 87 % 1004,8 hPa 0,0 l/m N-NO 0,00 h 0 W/m 2,7 km/h (1 Bft)
Min-Datum _ 03.06.13 06.06.13 09.06.13 - - - - 03.06.13
_ Min-Zeit 22:55 15:30 18:45 - - - - 00:00
Minimum _ 6,1 C 40 % 1003,4 hPa - - - - 0,0 km/h (0 Bft)
Max-Datum _ 08.06.13 03.06.13 03.06.13 03.06.13 - 03.06.13 09.06.13 03.06.13
_ Max-Zeit 16:05 23:50 16:05 14:30 - 08:00 12:50 16:45
Maximum _ 26,3 C 95 % 1023,3 hPa 0,2 l/m - 0,08 h 1113 W/m 29,0 km/h
N-NO (5 Bft)
Durchschnitt _ 14,9 C 75 % 1014,9 hPa #1,0 l/m O-NO #59:10 h 356 W/m 8,9 km/h (2 Bft)